Detail-Daten

Veränderung über 24 h

Datum, Zeit
 
Temperatur
(°C / °F)
Luftdruck
(h/Pa)
Luftfeuchtigkeit
(%)
Niederschlag
(l/m2)
Windgeschwindigkeit
(km/h)
Windrichtung
(N/E/S/W)
18.06.17, 21:50:00 21.70 / 71.1 1014.3 45 0.0 8.0 S
22:00:00 21.60 / 70.9 1014.4 45 0.0 6.4 SE
22:10:00 21.40 / 70.5 1014.4 45 0.0 11.3 SE
22:20:00 21.30 / 70.3 1014.5 46 0.0 6.4 SSE
22:30:00 21.10 / 70 1014.7 47 0.0 4.8 SSE
22:40:00 20.90 / 69.6 1014.7 48 0.0 6.4 SSE
22:50:00 20.60 / 69.1 1014.7 50 0.0 3.2 SSE
23:00:00 19.50 / 67.1 1014.8 54 0.0 1.6 SSE
23:10:00 19.10 / 66.4 1014.8 57 0.0 0.0 ---
23:20:00 18.90 / 66 1014.7 57 0.0 3.2 SSE
23:30:00 18.90 / 66 1014.7 56 0.0 1.6 SSE
23:40:00 18.90 / 66 1014.7 56 0.0 3.2 SSE
23:50:00 18.90 / 66 1014.7 57 0.0 4.8 SSE
19.06.17, 00:00:00 18.80 / 65.8 1014.6 57 0.0 4.8 S
00:10:00 18.70 / 65.7 1014.6 57 0.0 1.6 S
00:20:00 18.20 / 64.8 1014.6 59 0.0 1.6 S
00:30:00 17.90 / 64.2 1014.5 60 0.0 1.6 S
00:40:00 17.40 / 63.3 1014.5 63 0.0 3.2 S
00:50:00 17.40 / 63.3 1014.5 62 0.0 0.0 ---
01:00:00 17.30 / 63.1 1014.5 63 0.0 0.0 ---
01:10:00 17.00 / 62.6 1014.5 65 0.0 0.0 ---
01:20:00 16.70 / 62.1 1014.3 66 0.0 1.6 S
01:30:00 16.60 / 61.9 1014.3 67 0.0 0.0 ---
01:40:00 16.10 / 61 1014.3 69 0.0 1.6 S
01:50:00 15.90 / 60.6 1014.2 69 0.0 0.0 ---
02:00:00 15.70 / 60.3 1014.2 71 0.0 0.0 ---
02:10:00 15.80 / 60.4 1014.2 68 0.0 3.2 S
02:20:00 15.70 / 60.3 1014.1 70 0.0 3.2 S
02:30:00 15.80 / 60.4 1014.1 69 0.0 6.4 S
02:40:00 15.80 / 60.4 1014.1 69 0.0 8.0 SSW
02:50:00 15.80 / 60.4 1013.8 69 0.0 6.4 SW
03:00:00 15.40 / 59.7 1013.9 70 0.0 3.2 SW
03:10:00 15.60 / 60.1 1013.9 69 0.0 8.0 SSW
03:20:00 15.60 / 60.1 1013.9 70 0.0 6.4 SW
03:30:00 15.60 / 60.1 1013.8 70 0.0 8.0 SSW
03:40:00 15.50 / 59.9 1013.8 70 0.0 9.7 SSW
03:50:00 15.50 / 59.9 1013.8 69 0.0 8.0 SSW
04:00:00 15.10 / 59.2 1013.8 72 0.0 6.4 SSW
04:10:00 15.20 / 59.4 1013.8 72 0.0 9.7 SSW
04:20:00 15.20 / 59.4 1013.7 72 0.0 8.0 SW
04:30:00 14.80 / 58.6 1013.8 73 0.0 4.8 SW
04:40:00 14.60 / 58.3 1013.8 74 0.0 1.6 SW
04:50:00 14.70 / 58.5 1013.8 74 0.0 8.0 SW
05:00:00 14.80 / 58.6 1013.8 73 0.0 6.4 SW
05:10:00 14.30 / 57.7 1013.8 75 0.0 1.6 SW
05:20:00 14.20 / 57.6 1013.8 76 0.0 1.6 SW
05:30:00 14.20 / 57.6 1013.9 77 0.0 1.6 SW
05:40:00 14.20 / 57.6 1013.9 77 0.0 3.2 SW
05:50:00 14.40 / 57.9 1013.9 76 0.0 0.0 ---
06:00:00 14.30 / 57.7 1014.0 77 0.0 0.0 ---
06:10:00 14.20 / 57.6 1014.0 78 0.0 0.0 ---
06:20:00 14.80 / 58.6 1014.1 76 0.0 0.0 ---
06:30:00 15.20 / 59.4 1014.4 74 0.0 0.0 ---
06:40:00 15.30 / 59.5 1014.4 73 0.0 1.6 SW
06:50:00 15.50 / 59.9 1014.4 72 0.0 0.0 ---
07:00:00 15.80 / 60.4 1014.4 71 0.0 0.0 ---
07:10:00 16.40 / 61.5 1014.4 68 0.0 1.6 SW
07:20:00 16.70 / 62.1 1014.4 67 0.0 0.0 ---
07:30:00 17.00 / 62.6 1014.4 65 0.0 3.2 SW
07:40:00 17.30 / 63.1 1014.4 65 0.0 1.6 SW
07:50:00 18.20 / 64.8 1014.4 62 0.0 4.8 SSE
08:00:00 18.90 / 66 1014.3 59 0.0 6.4 SSE
08:10:00 19.50 / 67.1 1014.3 57 0.0 1.6 SSE
08:20:00 19.90 / 67.8 1014.5 55 0.0 4.8 ESE
08:30:00 20.40 / 68.7 1014.6 54 0.0 4.8 E
08:40:00 21.00 / 69.8 1014.6 52 0.0 6.4 SSE
08:50:00 21.10 / 70 1014.6 53 0.0 4.8 SSE
09:00:00 21.20 / 70.2 1014.5 53 0.0 3.2 SSE
09:10:00 21.60 / 70.9 1014.5 52 0.0 1.6 SSE
09:20:00 21.70 / 71.1 1014.4 52 0.0 0.0 ---
09:30:00 22.80 / 73 1014.2 48 0.0 3.2 SSE
09:40:00 22.60 / 72.7 1014.2 50 0.0 4.8 SSE
09:50:00 23.20 / 73.8 1014.1 49 0.0 1.6 SSE
10:00:00 24.30 / 75.7 1013.9 46 0.0 0.0 ---
10:10:00 24.50 / 76.1 1013.9 45 0.0 3.2 SSE
10:20:00 24.60 / 76.3 1014.1 47 0.0 1.6 SSE
10:30:00 23.90 / 75 1014.0 50 0.0 8.0 NNW
10:40:00 24.40 / 75.9 1014.0 49 0.0 4.8 E
10:50:00 24.70 / 76.5 1013.9 48 0.0 6.4 NNE
11:00:00 25.50 / 77.9 1013.7 47 0.0 6.4 E
11:10:00 25.70 / 78.3 1013.7 47 0.0 4.8 N
11:20:00 26.60 / 79.9 1013.5 45 0.0 9.7 N
11:30:00 26.60 / 79.9 1013.4 44 0.0 6.4 SW
11:40:00 26.80 / 80.2 1013.4 44 0.0 6.4 N
11:50:00 27.20 / 81 1013.4 43 0.0 6.4 NNW
12:00:00 26.90 / 80.4 1013.4 44 0.0 16.1 N
12:10:00 26.70 / 80.1 1013.4 45 0.0 17.7 NW
12:20:00 26.40 / 79.5 1013.5 45 0.0 22.5 NNW
12:30:00 26.80 / 80.2 1013.2 45 0.0 17.7 NNW
12:40:00 27.30 / 81.1 1013.2 44 0.0 19.3 NW
12:50:00 27.30 / 81.1 1013.0 42 0.0 20.9 N
13:00:00 27.30 / 81.1 1013.0 43 0.0 20.9 NW
13:10:00 28.00 / 82.4 1013.0 39 0.0 16.1 NW
13:20:00 28.00 / 82.4 1013.0 39 0.0 17.7 NW
13:30:00 28.00 / 82.4 1012.8 39 0.0 16.1 NNW
13:40:00 28.20 / 82.8 1012.8 39 0.0 19.3 NW
13:50:00 28.70 / 83.7 1012.6 38 0.0 17.7 NNE
14:00:00 29.30 / 84.7 1012.4 38 0.0 17.7 N
14:10:00 29.40 / 84.9 1012.4 37 0.0 17.7 N
14:20:00 29.30 / 84.7 1012.3 38 0.0 17.7 NNE
14:30:00 29.30 / 84.7 1012.0 38 0.0 11.3 NW
14:40:00 30.10 / 86.2 1012.0 36 0.0 14.5 N
14:50:00 29.50 / 85.1 1011.8 38 0.0 19.3 NW
15:00:00 29.80 / 85.6 1011.7 35 0.0 17.7 NW
15:10:00 30.30 / 86.5 1011.7 36 0.0 16.1 NNW
15:20:00 30.40 / 86.7 1011.6 35 0.0 14.5 N
15:30:00 30.40 / 86.7 1011.3 35 0.0 19.3 N
15:40:00 30.30 / 86.5 1011.3 35 0.0 19.3 NW
15:50:00 30.10 / 86.2 1011.3 36 0.0 20.9 NW
16:00:00 30.40 / 86.7 1011.3 33 0.0 17.7 NW
16:10:00 30.20 / 86.4 1011.3 35 0.0 19.3 NW
16:20:00 30.20 / 86.4 1011.2 34 0.0 19.3 N
16:30:00 30.30 / 86.5 1011.1 34 0.0 22.5 NNW
16:40:00 30.70 / 87.3 1011.1 33 0.0 17.7 NNW
16:50:00 30.40 / 86.7 1010.8 33 0.0 20.9 NW
17:00:00 30.70 / 87.3 1010.8 32 0.0 17.7 NW
17:10:00 30.60 / 87.1 1010.8 33 0.0 19.3 N
17:20:00 30.80 / 87.4 1010.8 31 0.0 17.7 NW
17:30:00 31.00 / 87.8 1010.7 31 0.0 22.5 N
17:40:00 31.10 / 88 1010.7 30 0.0 16.1 NNW
17:50:00 30.90 / 87.6 1010.5 31 0.0 16.1 N
18:00:00 30.90 / 87.6 1010.6 32 0.0 20.9 NW
18:10:00 31.00 / 87.8 1010.6 31 0.0 14.5 N
18:20:00 30.90 / 87.6 1010.3 31 0.0 17.7 NW
18:30:00 31.00 / 87.8 1010.2 31 0.0 14.5 NNE
18:40:00 31.10 / 88 1010.2 31 0.0 9.7 N
18:50:00 30.90 / 87.6 1010.2 32 0.0 16.1 WNW
19:00:00 30.60 / 87.1 1010.3 31 0.0 17.7 NNW
19:10:00 30.20 / 86.4 1010.3 33 0.0 16.1 NW
19:20:00 30.20 / 86.4 1010.0 34 0.0 14.5 N
19:30:00 30.30 / 86.5 1010.0 34 0.0 8.0 N
19:40:00 30.10 / 86.2 1010.0 35 0.0 14.5 N
19:50:00 29.80 / 85.6 1010.0 36 0.0 9.7 NNW
20:00:00 29.80 / 85.6 1010.0 36 0.0 3.2 NW
20:10:00 29.80 / 85.6 1010.0 38 0.0 0.0 ---
20:20:00 29.40 / 84.9 1009.8 41 0.0 1.6 NW
20:30:00 28.80 / 83.8 1009.9 42 0.0 0.0 ---
20:40:00 28.10 / 82.6 1009.9 46 0.0 0.0 ---
20:50:00 27.40 / 81.3 1010.0 47 0.0 1.6 NW
21:00:00 26.90 / 80.4 1010.1 48 0.0 1.6 NW
21:10:00 26.60 / 79.9 1010.1 49 0.0 3.2 NW
21:20:00 26.30 / 79.3 1010.1 50 0.0 4.8 WNW
21:30:00 26.10 / 79 1010.3 50 0.0 6.4 W
21:40:00 25.80 / 78.4 1010.3 50 0.0 8.0 SSW

24 h Min:

14.20 / 57.6 1009.8 30 0.0 0.0

24 h Max:

31.10 / 88 1014.8 78 0.0 22.5

24 h Durchschnitt:

23 / 73.4 1013 51.38 0 8.19